Time;durP1;ratioP1;P1;durP2;ratioP2;P2;SDS_P1;SDS_P2;PMS_P1;PMS_P2;Temp;Humidity;BMP_temperature;BMP_pressure;BME280_temperature;BME280_humidity;BME280_pressure;Samples;Min_cycle;Max_cycle;Signal;HPM_P1;HPM_P2
2023/05/28 00:00:04;;;;;;;12.63;4.97;;;;;;;18.68;45.57;99341.16;4287720;33;33886;-88
2023/05/28 00:02:39;;;;;;;10.50;4.15;;;;;;;18.63;45.52;99342.97;4288984;33;33697;-89
2023/05/28 00:05:08;;;;;;;11.65;4.72;;;;;;;18.54;45.17;99335.25;4288028;33;35028;-87
2023/05/28 00:07:35;;;;;;;9.27;4.20;;;;;;;18.40;45.83;99335.47;4301372;33;34494;-86
2023/05/28 00:10:03;;;;;;;13.05;4.87;;;;;;;18.47;45.45;99333.62;4298979;33;33714;-87
2023/05/28 00:12:30;;;;;;;8.65;3.85;;;;;;;18.01;46.87;99344.84;4300284;33;34005;-89
2023/05/28 00:14:59;;;;;;;12.10;4.43;;;;;;;18.22;46.36;99338.41;4300248;33;34181;-88
2023/05/28 00:17:27;;;;;;;11.43;4.20;;;;;;;18.29;45.94;99345.28;4287506;33;34060;-88
2023/05/28 00:19:55;;;;;;;10.45;4.40;;;;;;;18.31;45.77;99337.41;4298579;33;34522;-89
2023/05/28 00:22:23;;;;;;;11.73;4.15;;;;;;;18.23;45.81;99335.75;4301343;33;34088;-87
2023/05/28 00:24:51;;;;;;;11.65;4.80;;;;;;;18.26;46.14;99345.37;4301421;33;35253;-89
2023/05/28 00:27:19;;;;;;;11.30;4.05;;;;;;;18.00;46.85;99337.87;4300418;33;33940;-89
2023/05/28 00:29:47;;;;;;;10.32;4.25;;;;;;;18.35;46.92;99333.84;4301030;33;34575;-87
2023/05/28 00:32:15;;;;;;;10.90;4.70;;;;;;;18.30;47.03;99325.19;4300173;33;33956;-90
2023/05/28 00:34:43;;;;;;;10.73;4.15;;;;;;;18.41;46.44;99328.47;4300549;33;34136;-89
2023/05/28 00:37:10;;;;;;;9.40;4.28;;;;;;;18.08;46.38;99324.66;4300778;33;34581;-88
2023/05/28 00:39:37;;;;;;;12.95;4.40;;;;;;;18.31;44.63;99327.78;4300779;33;34663;-90
2023/05/28 00:42:07;;;;;;;10.02;4.40;;;;;;;17.83;42.83;99319.75;4287870;33;33668;-90
2023/05/28 00:44:35;;;;;;;9.15;3.95;;;;;;;17.98;44.97;99314.28;4300496;33;35094;-88
2023/05/28 00:47:02;;;;;;;10.52;4.32;;;;;;;18.00;42.15;99314.28;4300903;33;34186;-89
2023/05/28 00:49:30;;;;;;;9.02;4.12;;;;;;;18.17;43.91;99311.38;4287497;33;33269;-88
2023/05/28 00:51:58;;;;;;;9.27;4.00;;;;;;;18.12;44.31;99311.44;4298612;33;34953;-88
2023/05/28 00:54:25;;;;;;;11.63;4.60;;;;;;;18.20;44.17;99308.72;4299503;33;34233;-88
2023/05/28 00:56:54;;;;;;;9.57;4.18;;;;;;;18.39;43.54;99309.28;4299486;33;34930;-86
2023/05/28 00:59:23;;;;;;;10.27;4.60;;;;;;;18.21;42.82;99302.56;4300629;33;33403;-84
2023/05/28 01:01:51;;;;;;;11.05;4.18;;;;;;;18.10;42.88;99301.84;4287834;33;34102;-85
2023/05/28 01:04:21;;;;;;;9.80;4.25;;;;;;;18.07;43.03;99296.66;4297308;33;34638;-84
2023/05/28 01:06:49;;;;;;;11.25;4.47;;;;;;;18.07;43.15;99294.91;4300562;33;33661;-87
2023/05/28 01:09:17;;;;;;;9.40;4.25;;;;;;;18.08;42.96;99295.78;4285864;33;33934;-83
2023/05/28 01:11:46;;;;;;;11.27;4.20;;;;;;;17.96;42.74;99295.09;4298717;33;34272;-86
2023/05/28 01:14:15;;;;;;;10.60;4.10;;;;;;;17.99;42.40;99297.66;4287351;33;35055;-87
2023/05/28 01:16:44;;;;;;;9.48;3.95;;;;;;;17.92;42.90;99293.41;4286965;33;34160;-87
2023/05/28 01:19:16;;;;;;;11.10;3.92;;;;;;;17.85;42.93;99294.38;4300586;33;33755;-86
2023/05/28 01:21:45;;;;;;;10.43;4.45;;;;;;;17.91;42.66;99290.78;4300334;33;34020;-86
2023/05/28 01:24:13;;;;;;;10.88;4.55;;;;;;;17.73;43.40;99286.66;4286388;33;34095;-85
2023/05/28 01:26:42;;;;;;;9.07;3.85;;;;;;;17.76;43.38;99281.38;4299153;33;34338;-87
2023/05/28 01:29:18;;;;;;;13.62;4.68;;;;;;;17.70;43.31;99282.31;4288974;33;33652;-84
2023/05/28 01:31:48;;;;;;;10.38;4.37;;;;;;;17.73;43.31;99278.78;4289264;33;34145;-86
2023/05/28 01:34:16;;;;;;;8.75;4.15;;;;;;;17.62;43.88;99280.69;4289328;33;34132;-87
2023/05/28 01:36:56;;;;;;;12.70;4.93;;;;;;;17.73;42.85;99277.03;4287349;33;34253;-86
2023/05/28 01:39:27;;;;;;;9.18;3.97;;;;;;;17.47;43.54;99279.16;4289655;33;33337;-86
2023/05/28 01:41:54;;;;;;;8.48;4.25;;;;;;;17.61;43.43;99273.69;4288827;33;33530;-88
2023/05/28 01:44:23;;;;;;;11.20;4.85;;;;;;;17.26;44.07;99285.53;4289001;33;34223;-86
2023/05/28 01:46:53;;;;;;;8.48;4.50;;;;;;;17.27;44.19;99282.00;4288967;33;34202;-87
2023/05/28 01:49:21;;;;;;;9.82;4.75;;;;;;;17.34;44.45;99285.44;4302461;33;33822;-88
2023/05/28 01:51:51;;;;;;;9.13;4.40;;;;;;;17.20;44.01;99270.75;4288552;33;34813;-86
2023/05/28 01:54:20;;;;;;;11.70;4.22;;;;;;;17.21;44.23;99276.87;4302077;33;34309;-85
2023/05/28 01:56:48;;;;;;;11.75;4.62;;;;;;;17.29;44.03;99274.16;4289319;33;34833;-86
2023/05/28 01:59:17;;;;;;;9.15;4.25;;;;;;;17.48;43.70;99270.37;4302340;33;34095;-87
2023/05/28 02:01:44;;;;;;;10.82;4.12;;;;;;;17.21;44.05;99271.63;4302223;33;34005;-85
2023/05/28 02:04:13;;;;;;;11.55;4.55;;;;;;;17.30;44.08;99275.88;4302030;33;34117;-86
2023/05/28 02:06:45;;;;;;;8.48;4.18;;;;;;;17.09;44.73;99275.25;4300535;33;34112;-86
2023/05/28 02:09:13;;;;;;;9.18;4.05;;;;;;;16.95;45.59;99272.78;4302101;33;33614;-86
2023/05/28 02:11:42;;;;;;;9.18;4.32;;;;;;;17.12;44.81;99272.62;4302406;33;34094;-86
2023/05/28 02:14:13;;;;;;;11.12;4.60;;;;;;;16.97;44.95;99271.03;4302178;33;33956;-85
2023/05/28 02:16:42;;;;;;;8.50;3.50;;;;;;;17.07;45.45;99273.53;4301507;33;33845;-85
2023/05/28 02:19:11;;;;;;;12.45;4.50;;;;;;;17.08;45.03;99270.88;4302239;33;34504;-86
2023/05/28 02:21:39;;;;;;;8.95;4.10;;;;;;;17.00;44.62;99272.72;4302130;33;33836;-86
2023/05/28 02:24:07;;;;;;;10.82;4.90;;;;;;;17.23;44.77;99270.69;4301990;33;33727;-85
2023/05/28 02:26:35;;;;;;;12.43;4.82;;;;;;;17.10;45.01;99276.13;4301421;33;34113;-86
2023/05/28 02:29:02;;;;;;;10.60;4.25;;;;;;;16.77;45.56;99265.12;4301543;33;33246;-87
2023/05/28 02:31:30;;;;;;;10.88;4.00;;;;;;;17.00;45.59;99263.13;4300951;33;33842;-87
2023/05/28 02:33:57;;;;;;;9.77;4.15;;;;;;;17.09;45.30;99267.41;4301710;33;34004;-83
2023/05/28 02:36:25;;;;;;;8.85;4.15;;;;;;;16.95;45.25;99264.94;4301080;33;33756;-86
2023/05/28 02:38:52;;;;;;;7.85;3.90;;;;;;;16.83;45.14;99269.44;4301511;33;34747;-83
2023/05/28 02:41:20;;;;;;;9.10;4.00;;;;;;;16.94;45.66;99278.06;4287910;33;33228;-85
2023/05/28 02:43:48;;;;;;;10.88;4.22;;;;;;;16.77;45.69;99273.00;4289155;33;35317;-86
2023/05/28 02:46:16;;;;;;;9.55;4.37;;;;;;;16.88;45.60;99273.75;4301385;33;33849;-86
2023/05/28 02:48:45;;;;;;;8.82;4.07;;;;;;;16.89;45.59;99269.37;4301364;33;34652;-85
2023/05/28 02:51:13;;;;;;;11.75;5.15;;;;;;;16.90;46.07;99272.00;4301783;33;33918;-84
2023/05/28 02:53:42;;;;;;;7.87;4.03;;;;;;;16.91;46.31;99270.22;4301158;33;35027;-86
2023/05/28 02:56:09;;;;;;;8.52;4.53;;;;;;;16.83;46.19;99267.69;4301243;33;34979;-85
2023/05/28 02:58:37;;;;;;;8.43;3.80;;;;;;;16.97;45.52;99268.41;4301974;33;33862;-84
2023/05/28 03:01:06;;;;;;;9.70;4.20;;;;;;;16.97;45.34;99273.66;4302034;33;33735;-86
2023/05/28 03:03:33;;;;;;;9.13;4.43;;;;;;;16.86;45.38;99265.06;4301927;33;34237;-86
2023/05/28 03:06:02;;;;;;;10.32;4.35;;;;;;;16.71;45.93;99265.19;4288422;33;34476;-85
2023/05/28 03:08:30;;;;;;;10.25;4.45;;;;;;;16.74;45.76;99266.06;4294710;33;33167;-86
2023/05/28 03:10:59;;;;;;;9.85;4.60;;;;;;;16.74;45.94;99259.94;4302185;33;33352;-87
2023/05/28 03:13:26;;;;;;;8.95;3.83;;;;;;;16.69;46.50;99265.19;4301887;33;34747;-87
2023/05/28 03:15:54;;;;;;;7.97;3.92;;;;;;;16.80;45.91;99265.09;4301093;33;34279;-86
2023/05/28 03:18:22;;;;;;;9.88;4.18;;;;;;;16.73;46.29;99263.41;4302103;33;33874;-86
2023/05/28 03:20:50;;;;;;;11.45;4.28;;;;;;;16.76;46.54;99266.03;4301177;33;35049;-86
2023/05/28 03:23:19;;;;;;;10.82;4.00;;;;;;;16.72;46.21;99266.91;4300978;33;35037;-85
2023/05/28 03:25:48;;;;;;;8.23;3.92;;;;;;;16.72;46.69;99261.69;4301788;33;33774;-87
2023/05/28 03:28:15;;;;;;;9.65;4.05;;;;;;;16.63;47.02;99261.75;4288635;33;33440;-87
2023/05/28 03:30:47;;;;;;;9.27;3.95;;;;;;;16.51;47.21;99268.84;4301099;33;34856;-87
2023/05/28 03:33:15;;;;;;;7.97;3.67;;;;;;;16.82;47.02;99265.97;4300840;33;34052;-87
2023/05/28 03:35:44;;;;;;;8.05;3.83;;;;;;;16.81;46.97;99277.31;4301192;33;34435;-87
2023/05/28 03:38:12;;;;;;;11.48;3.72;;;;;;;16.83;47.00;99272.94;4275957;33;33650;-87
2023/05/28 03:40:40;;;;;;;9.20;3.72;;;;;;;16.87;46.96;99264.16;4301908;33;34890;-86
2023/05/28 03:43:09;;;;;;;9.75;4.20;;;;;;;16.82;47.50;99260.72;4301643;33;34144;-87
2023/05/28 03:45:37;;;;;;;8.13;3.90;;;;;;;16.99;47.57;99266.63;4301688;33;34581;-87
2023/05/28 03:48:06;;;;;;;9.80;4.00;;;;;;;17.19;46.87;99268.13;4301111;33;33729;-86
2023/05/28 03:50:33;;;;;;;7.65;4.05;;;;;;;17.33;46.32;99266.22;4300673;33;33615;-87
2023/05/28 03:53:02;;;;;;;10.15;3.72;;;;;;;17.54;46.36;99265.06;4301043;33;34058;-86
2023/05/28 03:55:29;;;;;;;7.40;3.33;;;;;;;17.66;45.79;99264.91;4301926;33;34121;-85
2023/05/28 03:57:57;;;;;;;8.57;3.92;;;;;;;17.43;46.89;99267.84;4301358;33;34199;-86
2023/05/28 04:00:25;;;;;;;10.98;4.00;;;;;;;17.75;46.59;99263.91;4301549;33;33906;-86
2023/05/28 04:02:53;;;;;;;9.70;3.95;;;;;;;17.74;46.79;99267.41;4301550;33;35095;-86
2023/05/28 04:05:20;;;;;;;10.93;4.20;;;;;;;17.95;47.01;99267.09;4301480;33;34916;-87
2023/05/28 04:07:49;;;;;;;8.57;3.95;;;;;;;17.97;47.21;99270.56;4287769;33;33338;-87
2023/05/28 04:10:16;;;;;;;9.10;3.78;;;;;;;18.17;46.90;99266.75;4301414;33;33707;-86
2023/05/28 04:12:44;;;;;;;9.70;3.75;;;;;;;18.17;46.64;99267.63;4301705;33;34925;-87
2023/05/28 04:15:11;;;;;;;9.30;3.50;;;;;;;18.46;46.27;99254.00;4301316;33;34289;-87
2023/05/28 04:17:39;;;;;;;8.07;3.65;;;;;;;18.50;45.86;99262.69;4300991;33;33786;-87
2023/05/28 04:20:07;;;;;;;10.95;3.80;;;;;;;18.85;45.04;99259.44;4287860;33;34816;-86
2023/05/28 04:22:34;;;;;;;8.73;3.95;;;;;;;19.14;45.06;99263.28;4287343;33;34277;-87
2023/05/28 04:25:02;;;;;;;9.38;4.10;;;;;;;19.37;45.55;99270.69;4300907;33;34703;-87
2023/05/28 04:27:30;;;;;;;10.75;3.65;;;;;;;19.55;44.97;99269.41;4288093;33;34168;-84
2023/05/28 04:29:58;;;;;;;11.45;3.87;;;;;;;19.36;43.20;99266.31;4301518;33;34300;-86
2023/05/28 04:32:27;;;;;;;9.48;3.58;;;;;;;19.15;43.48;99268.47;4287857;33;34149;-87
2023/05/28 04:34:55;;;;;;;9.35;4.18;;;;;;;19.73;44.29;99266.38;4300744;33;34245;-86
2023/05/28 04:37:24;;;;;;;8.50;3.37;;;;;;;19.78;44.00;99264.53;4300624;33;34442;-86
2023/05/28 04:39:52;;;;;;;10.18;3.90;;;;;;;19.98;42.71;99255.31;4287822;33;32152;-87
2023/05/28 04:42:20;;;;;;;9.88;3.58;;;;;;;20.00;42.71;99261.37;4300979;33;34188;-86
2023/05/28 04:44:47;;;;;;;7.18;3.30;;;;;;;20.33;41.47;99260.53;4287578;33;32972;-87
2023/05/28 04:47:15;;;;;;;7.30;3.62;;;;;;;20.77;43.36;99260.34;4300855;33;33671;-85
2023/05/28 04:49:43;;;;;;;9.32;3.50;;;;;;;20.86;41.45;99266.19;4299271;33;33920;-87
2023/05/28 04:52:10;;;;;;;11.43;3.65;;;;;;;21.02;41.63;99261.34;4287592;33;33023;-87
2023/05/28 04:54:38;;;;;;;9.57;3.62;;;;;;;20.99;43.26;99265.88;4299432;33;34120;-86
2023/05/28 04:57:08;;;;;;;9.43;3.22;;;;;;;20.86;41.08;99260.94;4300277;33;33712;-88
2023/05/28 04:59:35;;;;;;;8.02;3.55;;;;;;;21.30;41.21;99265.88;4287990;33;34083;-86
2023/05/28 05:02:03;;;;;;;10.73;3.80;;;;;;;21.94;43.33;99270.97;4300719;33;35226;-86
2023/05/28 05:04:31;;;;;;;11.73;3.72;;;;;;;22.22;42.96;99270.97;4301572;33;33851;-86
2023/05/28 05:06:59;;;;;;;9.23;3.62;;;;;;;22.04;42.91;99264.47;4289700;33;33802;-87
2023/05/28 05:09:27;;;;;;;9.73;3.50;;;;;;;21.48;39.83;99270.63;4302691;33;33890;-86
2023/05/28 05:11:55;;;;;;;8.25;3.47;;;;;;;21.76;40.47;99273.28;4302711;33;34165;-87
2023/05/28 05:14:22;;;;;;;7.32;2.85;;;;;;;21.70;39.23;99273.47;4302315;33;35183;-86
2023/05/28 05:16:50;;;;;;;14.05;3.67;;;;;;;21.45;39.39;99275.13;4302413;33;33299;-85
2023/05/28 05:19:18;;;;;;;10.05;3.65;;;;;;;21.34;39.67;99272.81;4300837;33;34101;-85
2023/05/28 05:21:45;;;;;;;10.18;3.42;;;;;;;20.87;40.33;99278.50;4301588;33;33812;-86
2023/05/28 05:24:15;;;;;;;8.05;2.85;;;;;;;21.29;39.02;99275.56;4301580;33;33993;-87
2023/05/28 05:26:43;;;;;;;13.40;5.90;;;;;;;20.71;39.57;99263.97;4302745;33;34282;-87
2023/05/28 05:29:11;;;;;;;8.52;3.47;;;;;;;21.29;39.96;99275.56;4301862;33;34609;-86
2023/05/28 05:31:38;;;;;;;9.25;3.37;;;;;;;20.76;40.62;99277.03;4300365;33;34270;-87
2023/05/28 05:34:07;;;;;;;10.52;3.75;;;;;;;21.43;38.91;99271.66;4302541;33;34307;-85
2023/05/28 05:36:35;;;;;;;12.88;3.75;;;;;;;20.76;39.41;99275.28;4301368;33;34065;-88
2023/05/28 05:39:04;;;;;;;12.18;4.18;;;;;;;20.52;40.03;99270.66;4302673;33;34533;-84
2023/05/28 05:41:32;;;;;;;8.65;3.53;;;;;;;20.87;40.70;99275.84;4302368;33;33875;-85
2023/05/28 05:44:00;;;;;;;9.63;3.25;;;;;;;21.01;39.50;99266.69;4301062;33;34375;-87
2023/05/28 05:46:28;;;;;;;10.18;3.25;;;;;;;21.49;38.88;99266.22;4301276;33;34626;-87
2023/05/28 05:48:56;;;;;;;10.18;3.20;;;;;;;20.93;39.25;99272.16;4302294;33;33871;-87
2023/05/28 05:51:23;;;;;;;9.65;3.20;;;;;;;21.34;38.41;99262.25;4288614;33;34186;-87
2023/05/28 05:53:51;;;;;;;11.27;3.47;;;;;;;21.37;38.93;99264.81;4289378;33;33905;-85
2023/05/28 05:56:18;;;;;;;9.57;3.42;;;;;;;21.19;38.95;99262.69;4288908;33;32806;-85
2023/05/28 05:58:47;;;;;;;7.35;3.28;;;;;;;21.73;39.72;99259.31;4301813;33;34633;-87
2023/05/28 06:01:16;;;;;;;8.05;3.20;;;;;;;22.09;38.08;99265.22;4287462;33;34221;-85
2023/05/28 06:03:44;;;;;;;8.77;3.90;;;;;;;22.32;38.49;99264.47;4302480;33;34857;-85
2023/05/28 06:06:13;;;;;;;7.90;2.72;;;;;;;23.06;37.47;99268.06;4300729;33;33440;-86
2023/05/28 06:08:41;;;;;;;6.37;3.20;;;;;;;22.82;37.10;99273.28;4289082;33;34098;-87
2023/05/28 06:11:09;;;;;;;8.88;3.85;;;;;;;22.74;35.61;99271.84;4302019;33;34297;-89
2023/05/28 06:13:37;;;;;;;8.57;3.20;;;;;;;22.86;36.55;99279.34;4300237;33;33666;-88
2023/05/28 06:16:06;;;;;;;10.93;3.20;;;;;;;22.69;36.56;99281.69;4301639;33;33779;-88
2023/05/28 06:18:34;;;;;;;10.32;3.25;;;;;;;22.15;36.92;99278.22;4301711;33;34099;-87
2023/05/28 06:21:03;;;;;;;8.35;3.35;;;;;;;22.42;36.97;99276.44;4302103;33;32589;-89
2023/05/28 06:23:32;;;;;;;7.07;2.58;;;;;;;22.31;36.21;99279.47;4288059;33;34166;-89
2023/05/28 06:25:59;;;;;;;8.45;3.15;;;;;;;22.61;36.33;99271.38;4301396;33;34460;-88
2023/05/28 06:28:27;;;;;;;7.75;3.50;;;;;;;22.95;37.08;99278.16;4300759;33;33767;-89
2023/05/28 06:30:57;;;;;;;8.15;3.37;;;;;;;23.33;36.45;99274.12;4302001;33;35654;-86
2023/05/28 06:33:25;;;;;;;8.68;3.30;;;;;;;22.92;36.11;99275.63;4301953;33;35146;-91
2023/05/28 06:35:52;;;;;;;10.10;3.30;;;;;;;22.65;34.85;99288.00;4302071;33;34667;-89
2023/05/28 06:38:21;;;;;;;9.25;3.87;;;;;;;23.21;35.36;99293.09;4289009;33;33640;-89
2023/05/28 06:40:50;;;;;;;8.40;3.83;;;;;;;23.04;34.30;99286.66;4301912;33;34250;-90
2023/05/28 06:43:18;;;;;;;8.18;3.20;;;;;;;22.52;35.28;99290.22;4288206;33;34748;-89
2023/05/28 06:45:51;;;;;;;12.43;3.78;;;;;;;22.64;35.13;99295.06;4302320;33;34688;-88
2023/05/28 06:48:19;;;;;;;9.32;3.25;;;;;;;22.62;36.37;99288.12;4300600;33;34159;-87
2023/05/28 06:50:47;;;;;;;10.35;3.05;;;;;;;22.77;36.50;99296.38;4300256;33;34032;-89
2023/05/28 06:53:15;;;;;;;9.10;3.15;;;;;;;22.98;37.29;99291.28;4301805;33;34064;-90
2023/05/28 06:55:43;;;;;;;7.28;3.40;;;;;;;22.75;35.37;99297.34;4301937;33;33752;-89
2023/05/28 06:58:12;;;;;;;11.10;3.25;;;;;;;22.94;35.85;99293.16;4288893;33;34326;-87
2023/05/28 07:00:45;;;;;;;10.85;3.30;;;;;;;22.87;35.69;99288.97;4301228;33;34866;-89
2023/05/28 07:03:13;;;;;;;7.32;3.05;;;;;;;22.41;35.54;99289.72;4301967;33;33844;-90
2023/05/28 07:05:40;;;;;;;7.10;3.15;;;;;;;22.72;35.50;99287.75;4289006;33;33411;-90
2023/05/28 07:08:09;;;;;;;9.27;3.37;;;;;;;22.30;35.78;99290.06;4299990;33;33043;-91
2023/05/28 07:10:37;;;;;;;9.07;2.90;;;;;;;22.74;35.15;99283.28;4288680;33;35004;-89
2023/05/28 07:13:05;;;;;;;6.68;2.72;;;;;;;22.45;36.30;99286.06;4301980;33;34053;-88
2023/05/28 07:15:33;;;;;;;8.43;3.12;;;;;;;22.92;35.53;99288.84;4287338;33;33674;-89
2023/05/28 07:18:01;;;;;;;9.88;3.22;;;;;;;22.51;35.41;99292.00;4301565;33;34768;-88
2023/05/28 07:20:28;;;;;;;10.65;3.72;;;;;;;22.20;35.53;99288.62;4290152;33;34779;-88
2023/05/28 07:22:56;;;;;;;10.90;3.50;;;;;;;22.10;36.74;99293.34;4300896;33;35009;-91
2023/05/28 07:25:24;;;;;;;12.90;3.83;;;;;;;21.75;36.76;99300.59;4301058;33;33845;-92
2023/05/28 07:27:51;;;;;;;7.78;3.08;;;;;;;21.61;38.53;99298.34;4301235;33;33453;-89
2023/05/28 07:30:20;;;;;;;8.27;3.37;;;;;;;22.10;37.94;99299.47;4299552;33;33737;-88
2023/05/28 07:32:47;;;;;;;9.93;3.95;;;;;;;22.01;37.63;99306.81;4301733;33;34169;-88
2023/05/28 07:35:16;;;;;;;9.23;3.67;;;;;;;21.52;38.25;99292.50;4273509;33;33176;-87
2023/05/28 07:37:43;;;;;;;10.55;3.97;;;;;;;22.06;37.73;99296.97;4298836;33;34037;-88
2023/05/28 07:40:12;;;;;;;8.50;2.85;;;;;;;21.54;37.44;99290.66;4288215;33;35020;-88
2023/05/28 07:42:40;;;;;;;9.73;3.50;;;;;;;21.93;37.98;99282.44;4288729;33;33937;-86
2023/05/28 07:45:09;;;;;;;10.82;3.42;;;;;;;22.66;38.01;99280.03;4300851;33;34584;-88
2023/05/28 07:47:37;;;;;;;12.95;3.85;;;;;;;22.51;36.57;99280.56;4288625;33;34245;-89
2023/05/28 07:50:05;;;;;;;8.85;3.40;;;;;;;22.99;38.00;99277.13;4301293;33;34159;-87
2023/05/28 07:52:36;;;;;;;7.10;3.15;;;;;;;22.85;36.07;99276.75;4288497;33;32523;-89
2023/05/28 07:55:05;;;;;;;8.95;3.33;;;;;;;23.50;35.51;99279.63;4286686;33;33676;-89
2023/05/28 07:57:33;;;;;;;7.65;3.50;;;;;;;23.56;35.46;99283.81;4296851;33;33454;-85
2023/05/28 08:00:02;;;;;;;9.20;3.90;;;;;;;22.99;35.07;99288.56;4289265;33;34875;-85
2023/05/28 08:02:30;;;;;;;12.75;3.95;;;;;;;23.47;35.07;99270.97;4296867;33;33840;-83
2023/05/28 08:05:00;;;;;;;8.80;4.00;;;;;;;23.48;34.82;99280.59;4284485;33;33710;-87
2023/05/28 08:07:28;;;;;;;9.02;3.55;;;;;;;23.25;36.08;99279.69;4273121;33;32073;-87
2023/05/28 08:09:56;;;;;;;8.85;3.05;;;;;;;23.47;34.65;99279.75;4293826;33;34362;-85
2023/05/28 08:12:24;;;;;;;11.18;4.20;;;;;;;23.60;35.22;99276.63;4273874;33;34812;-83
2023/05/28 08:14:52;;;;;;;9.73;3.70;;;;;;;23.14;36.84;99275.72;4294769;33;33315;-82
2023/05/28 08:17:22;;;;;;;19.42;8.63;;;;;;;23.47;36.39;99278.91;4287834;33;33038;-86
2023/05/28 08:19:50;;;;;;;22.00;7.60;;;;;;;23.83;36.74;99273.09;4299971;33;34399;-84
2023/05/28 08:22:28;;;;;;;10.65;3.55;;;;;;;24.11;34.58;99265.78;4298444;33;34027;-89
2023/05/28 08:24:56;;;;;;;10.63;3.97;;;;;;;23.98;34.49;99273.38;4274724;33;34490;-86
2023/05/28 08:27:24;;;;;;;10.10;3.75;;;;;;;23.49;35.07;99271.78;4299371;33;34095;-87
2023/05/28 08:29:51;;;;;;;8.60;3.42;;;;;;;23.49;34.68;99267.34;4299447;33;34933;-90
2023/05/28 08:32:19;;;;;;;7.62;3.58;;;;;;;24.00;34.40;99262.72;4299625;33;34174;-88
2023/05/28 08:34:47;;;;;;;9.05;3.22;;;;;;;24.09;34.13;99261.47;4270729;33;31505;-84
2023/05/28 08:37:16;;;;;;;9.45;3.30;;;;;;;23.95;34.21;99254.97;4297018;33;34745;-87
2023/05/28 08:39:44;;;;;;;7.90;3.28;;;;;;;23.84;37.24;99267.78;4314481;33;35091;-86
2023/05/28 08:42:13;;;;;;;9.13;3.37;;;;;;;23.68;35.70;99259.59;4305378;33;35121;-88
2023/05/28 08:44:41;;;;;;;9.90;3.40;;;;;;;23.84;35.55;99256.31;4275590;33;33679;-87
2023/05/28 08:47:10;;;;;;;11.75;3.60;;;;;;;24.05;35.03;99252.78;4301051;33;33492;-89
2023/05/28 08:49:42;;;;;;;8.15;3.80;;;;;;;24.84;35.23;99255.66;4287787;33;34996;-88
2023/05/28 08:52:12;;;;;;;11.82;3.72;;;;;;;24.98;34.44;99251.47;4300963;33;34189;-87
2023/05/28 08:54:40;;;;;;;7.50;3.60;;;;;;;24.69;34.66;99247.44;4287151;33;33525;-88
2023/05/28 08:57:09;;;;;;;8.32;3.50;;;;;;;24.31;34.27;99246.41;4287172;33;34014;-88
2023/05/28 08:59:39;;;;;;;11.23;3.97;;;;;;;24.44;35.11;99241.50;4299235;33;34871;-88
2023/05/28 09:02:07;;;;;;;11.30;4.00;;;;;;;24.91;34.97;99246.50;4287687;33;35179;-88
2023/05/28 09:04:35;;;;;;;10.40;3.40;;;;;;;25.47;34.13;99236.00;4300625;33;34173;-89
2023/05/28 09:07:03;;;;;;;11.82;3.65;;;;;;;25.29;34.96;99239.50;4288043;33;33230;-86
2023/05/28 09:09:32;;;;;;;8.77;4.00;;;;;;;25.01;32.98;99242.53;4301011;33;33896;-88
2023/05/28 09:12:05;;;;;;;8.80;3.40;;;;;;;24.75;34.26;99235.72;4299393;33;34134;-89
2023/05/28 09:14:40;;;;;;;10.50;3.85;;;;;;;23.67;34.94;99241.94;4299792;33;34522;-87
2023/05/28 09:17:09;;;;;;;12.27;3.92;;;;;;;24.58;35.44;99225.84;4287383;33;32475;-87
2023/05/28 09:19:39;;;;;;;9.13;3.37;;;;;;;24.68;34.26;99224.53;4300803;33;33735;-89
2023/05/28 09:22:07;;;;;;;12.27;4.20;;;;;;;24.70;34.30;99228.00;4299982;33;34530;-88
2023/05/28 09:24:38;;;;;;;7.37;3.10;;;;;;;24.86;33.91;99224.66;4298861;33;34079;-87
2023/05/28 09:27:09;;;;;;;10.68;4.12;;;;;;;24.67;34.98;99237.88;4297102;33;33925;-88
2023/05/28 09:29:37;;;;;;;11.02;3.37;;;;;;;24.72;34.82;99233.22;4297913;33;34977;-88
2023/05/28 09:32:05;;;;;;;9.07;3.87;;;;;;;25.30;34.38;99233.25;4273482;33;33215;-88
2023/05/28 09:34:33;;;;;;;11.25;4.00;;;;;;;25.67;33.25;99232.38;4273023;33;33438;-90
2023/05/28 09:37:01;;;;;;;14.95;4.25;;;;;;;25.93;33.25;99227.62;4300193;33;33935;-89
2023/05/28 09:39:29;;;;;;;8.60;3.70;;;;;;;26.15;33.37;99211.50;4297765;33;34322;-87
2023/05/28 09:42:03;;;;;;;11.98;3.92;;;;;;;26.13;31.07;99216.87;4298027;33;33788;-87
2023/05/28 09:44:31;;;;;;;9.73;3.55;;;;;;;26.61;31.33;99220.66;4313853;33;35077;-87
2023/05/28 09:46:59;;;;;;;11.43;3.50;;;;;;;26.54;30.92;99218.41;4297332;33;33703;-88
2023/05/28 09:49:30;;;;;;;9.43;3.83;;;;;;;25.91;31.73;99209.13;4289429;33;33608;-86
2023/05/28 09:51:59;;;;;;;8.45;3.55;;;;;;;26.30;32.02;99204.53;4285634;33;34752;-88
2023/05/28 09:54:29;;;;;;;10.15;3.95;;;;;;;26.24;31.57;99208.34;4287385;33;33695;-86
2023/05/28 09:57:02;;;;;;;8.27;3.17;;;;;;;26.04;31.82;99204.06;4283713;33;34609;-89
2023/05/28 09:59:32;;;;;;;8.10;3.50;;;;;;;26.20;32.29;99210.31;4300346;33;34008;-90
2023/05/28 10:02:05;;;;;;;10.15;3.67;;;;;;;26.50;30.00;99208.84;4299808;33;34268;-89
2023/05/28 10:04:35;;;;;;;10.30;3.28;;;;;;;25.86;31.56;99200.50;4287000;33;34486;-90
2023/05/28 10:07:05;;;;;;;7.93;3.50;;;;;;;26.17;30.88;99205.16;4294408;33;33577;-88
2023/05/28 10:09:34;;;;;;;8.77;4.00;;;;;;;26.48;32.19;99205.41;4276454;33;33437;-90
2023/05/28 10:12:10;;;;;;;10.85;3.42;;;;;;;26.28;31.39;99199.28;4284670;33;34919;-88
2023/05/28 10:14:38;;;;;;;8.18;4.15;;;;;;;26.62;31.26;99206.41;4301202;33;33906;-87
2023/05/28 10:17:07;;;;;;;8.68;3.47;;;;;;;26.31;32.15;99196.47;4287870;33;33358;-88
2023/05/28 10:19:36;;;;;;;12.30;3.80;;;;;;;26.06;31.12;99196.84;4288174;33;34124;-88
2023/05/28 10:22:04;;;;;;;9.00;3.90;;;;;;;26.53;30.58;99198.94;4288345;33;34830;-88
2023/05/28 10:24:32;;;;;;;8.20;3.53;;;;;;;26.66;33.50;99192.00;4291221;33;33698;-89
2023/05/28 10:27:00;;;;;;;8.73;3.83;;;;;;;27.27;30.10;99193.19;4308687;33;34148;-91
2023/05/28 10:29:37;;;;;;;9.18;3.55;;;;;;;26.85;29.72;99191.88;4307988;33;33847;-89
2023/05/28 10:32:05;;;;;;;8.65;3.40;;;;;;;26.97;29.84;99187.72;4298669;33;34998;-88
2023/05/28 10:34:33;;;;;;;10.70;3.67;;;;;;;26.95;29.50;99178.97;4291496;33;34952;-87
2023/05/28 10:37:02;;;;;;;7.87;3.40;;;;;;;26.97;29.45;99182.38;4288657;33;33799;-88
2023/05/28 10:39:40;;;;;;;18.27;8.90;;;;;;;26.52;31.92;99175.06;4292452;33;35066;-88
2023/05/28 10:42:09;;;;;;;7.55;3.12;;;;;;;26.10;31.09;99171.88;4301171;33;34736;-87
2023/05/28 10:45:11;;;;;;;12.52;3.65;;;;;;;26.56;29.83;99177.50;4300999;33;32976;-87
2023/05/28 10:47:50;;;;;;;8.00;3.35;;;;;;;27.01;29.75;99178.66;4297273;33;33814;-88
2023/05/28 10:50:19;;;;;;;7.82;3.28;;;;;;;27.04;28.84;99174.94;4299383;33;33703;-85
2023/05/28 10:53:08;;;;;;;6.50;3.40;;;;;;;27.24;29.64;99176.53;4285899;33;34657;-86
2023/05/28 10:55:52;;;;;;;8.70;3.22;;;;;;;26.97;28.68;99174.41;4301635;33;34169;-87
2023/05/28 10:58:34;;;;;;;8.27;3.53;;;;;;;27.02;28.80;99168.84;4299494;33;33752;-86
2023/05/28 11:01:12;;;;;;;11.77;4.22;;;;;;;27.00;29.14;99165.41;4301131;33;33628;-87
2023/05/28 11:03:42;;;;;;;9.50;3.67;;;;;;;27.39;32.09;99173.91;4284117;33;33977;-87
2023/05/28 11:06:11;;;;;;;8.77;3.70;;;;;;;27.53;28.75;99167.78;4297904;33;33418;-89
2023/05/28 11:08:47;;;;;;;7.45;3.67;;;;;;;27.32;28.92;99153.03;4287736;33;34792;-88
2023/05/28 11:11:16;;;;;;;9.10;4.05;;;;;;;27.65;27.98;99151.12;4293851;33;34551;-87
2023/05/28 11:13:48;;;;;;;14.55;3.78;;;;;;;27.37;28.47;99149.16;4276749;33;34083;-86
2023/05/28 11:16:18;;;;;;;9.50;4.00;;;;;;;27.16;28.98;99150.34;4277064;33;34150;-88
2023/05/28 11:19:07;;;;;;;13.27;3.35;;;;;;;27.39;28.26;99147.28;4288080;33;33868;-88
2023/05/28 11:21:52;;;;;;;8.85;3.70;;;;;;;27.78;27.81;99151.28;4288100;33;33956;-88
2023/05/28 11:24:19;;;;;;;8.93;3.70;;;;;;;27.25;29.06;99151.66;4301060;33;34859;-89
2023/05/28 11:26:47;;;;;;;8.73;3.30;;;;;;;27.31;28.94;99148.63;4301690;33;34339;-90
2023/05/28 11:29:15;;;;;;;10.15;3.85;;;;;;;27.30;30.07;99133.59;4301113;33;33761;-88
2023/05/28 11:31:42;;;;;;;10.77;3.58;;;;;;;27.32;28.25;99129.06;4301336;33;34155;-91
2023/05/28 11:34:10;;;;;;;9.32;3.87;;;;;;;27.19;29.13;99136.00;4301238;33;33972;-88
2023/05/28 11:36:42;;;;;;;10.68;4.65;;;;;;;26.86;29.13;99132.44;4286900;33;33416;-90